Flight Track Log - Related Links

Times and Time Zones

All times are in EDT time to prevent confusion due to time zone crossing. See the GJS3706 flight status page for this flight to view local times or setup timezone preferences in your user account.

Time Position Orientation Groundspeed Altitude Reporting Facility
EDT Latitude Longitude Course Direction KTS MPH feet Rate Location/Type
Wed 09:32:00 PM 36.1411 -95.8911 189° South 201 231 3,400  Level Kansas City Center
Wed 09:32:55 PM 36.0950 -95.9411 221° Southwest 257 296 5,700 2,244 Climbing Kansas City Center
Wed 09:34:11 PM 36.1167 -96.0361 286° West 271 312 8,300 2,478 Climbing Kansas City Center
Wed 09:35:13 PM 36.1650 -96.1175 306° West 289 333 11,400 2,244 Climbing Kansas City Center
Wed 09:36:14 PM 36.2142 -96.2053 305° West 301 346 12,900 1,854 Climbing Kansas City Center
Wed 09:37:16 PM 36.2828 -96.3253 305° West 344 396 15,200 2,081 Climbing Kansas City Center
Wed 09:38:18 PM 36.3364 -96.4353 301° West 365 420 17,200 1,902 Climbing Kansas City Center
Wed 09:39:19 PM 36.3822 -96.5536 296° West 376 433 19,100 1,902 Climbing Kansas City Center
Wed 09:40:21 PM 36.4275 -96.6708 296° West 377 434 21,100 1,756 Climbing Kansas City Center
Wed 09:41:22 PM 36.4764 -96.7875 298° West 379 436 22,700 1,415 Climbing Kansas City Center
Wed 09:42:24 PM 36.5242 -96.9108 296° West 389 448 24,000 1,220 Climbing Kansas City Center
Wed 09:43:25 PM 36.5739 -97.0381 296° West 403 464 25,200 1,171 Climbing Kansas City Center
Wed 09:44:27 PM 36.6242 -97.1675 296° West 413 475 26,400 1,268 Climbing Kansas City Center
Wed 09:45:28 PM 36.6856 -97.3258 296° West 422 486 27,800 780 Climbing Kansas City Center
Wed 09:46:30 PM 36.7314 -97.4467 295° West 424 488 28,000 98 Climbing Kansas City Center
Wed 09:47:31 PM 36.7844 -97.5867 295° West 437 503 28,000  Level Kansas City Center
Wed 09:48:33 PM 36.8378 -97.7239 296° West 440 506 28,000  Level Kansas City Center
Wed 09:49:34 PM 36.8886 -97.8628 295° West 439 505 28,000  Level Kansas City Center
Wed 09:50:35 PM 36.9400 -97.9997 295° West 435 501 28,000  Level Kansas City Center
Wed 09:51:37 PM 37.0022 -98.1661 295° West 437 503 28,000  Level Kansas City Center
Wed 09:52:38 PM 37.0544 -98.3053 295° West 440 506 28,000  Level Kansas City Center
Wed 09:53:40 PM 37.1069 -98.4481 295° West 445 512 28,000  Level Kansas City Center
Wed 09:54:41 PM 37.1583 -98.5894 295° West 445 512 28,000  Level Kansas City Center
Wed 09:55:43 PM 37.2114 -98.7325 295° West 448 516 28,000  Level Kansas City Center
Wed 09:56:44 PM 37.2633 -98.8767 294° West 450 518 28,000  Level Kansas City Center
Wed 09:57:45 PM 37.3156 -99.0186 295° West 448 516 28,000  Level Kansas City Center
Wed 09:58:47 PM 37.3672 -99.1622 294° West 449 517 28,000  Level Kansas City Center
Wed 09:59:48 PM 37.4178 -99.3053 294° West 448 516 28,000  Level Kansas City Center
Wed 10:00:50 PM 37.4781 -99.4689 295° West 450 518 28,000  Level Kansas City Center
Wed 10:01:51 PM 37.5283 -99.6056 295° West 449 517 28,000  Level Kansas City Center
Wed 10:02:52 PM 37.5839 -99.7669 294° West 452 520 28,000  Level Kansas City Center
Wed 10:03:54 PM 37.6347 -99.9039 295° West 451 519 28,000  Level Kansas City Center
Wed 10:04:55 PM 37.6908 -100.0650 294° West 450 518 28,000  Level Kansas City Center
Wed 10:05:56 PM 37.7383 -100.2022 294° West 448 516 28,000  Level Kansas City Center
Wed 10:06:57 PM 37.7861 -100.3389 294° West 446 513 28,000  Level Kansas City Center
Wed 10:07:59 PM 37.8425 -100.4989 294° West 449 517 28,000  Level Kansas City Center
Wed 10:09:00 PM 37.8897 -100.6350 294° West 447 514 28,000  Level Kansas City Center
Wed 10:10:01 PM 37.9450 -100.7933 294° West 446 513 28,000  Level Kansas City Center
Wed 10:11:02 PM 37.9961 -100.9244 296° West 440 506 28,000  Level Kansas City Center
Wed 10:12:04 PM 38.0556 -101.0797 296° West 441 507 28,000  Level Kansas City Center
Wed 10:13:05 PM 38.1064 -101.2128 296° West 441 507 28,000  Level Kansas City Center
Wed 10:13:53 PM 38.1475 -101.3217 296° West 436 502 28,000  Level Denver Center
Wed 10:14:55 PM 38.2047 -101.4489 300° West 435 501 28,000  Level Denver Center
Wed 10:15:57 PM 38.2778 -101.5903 303° West 430 495 28,000  Level Denver Center
Wed 10:16:59 PM 38.3372 -101.7131 302° West 428 493 28,000  Level Denver Center
Wed 10:18:01 PM 38.4086 -101.8561 303° West 429 494 28,000  Level Denver Center
Wed 10:19:03 PM 38.4678 -101.9783 302° West 425 489 28,000  Level Denver Center
Wed 10:20:05 PM 38.5369 -102.1208 302° West 422 486 28,000  Level Denver Center
Wed 10:21:07 PM 38.5978 -102.2425 303° West 423 487 28,000  Level Denver Center
Wed 10:22:08 PM 38.6661 -102.3856 301° West 422 486 28,000  Level Denver Center
Wed 10:23:10 PM 38.7256 -102.5092 302° West 426 490 28,000  Level Denver Center
Wed 10:24:12 PM 38.7953 -102.6556 301° West 432 497 28,000  Level Denver Center
Wed 10:25:14 PM 38.8542 -102.7778 302° West 428 493 28,000  Level Denver Center
Wed 10:26:16 PM 38.9167 -102.9086 302° West 432 497 28,000  Level Denver Center
Wed 10:27:17 PM 38.9781 -103.0408 301° West 431 496 28,000 -585 Level Denver Center
Wed 10:28:19 PM 39.0419 -103.1711 302° West 432 497 26,800 -1,500 Descending Denver Center
Wed 10:29:21 PM 39.1150 -103.3275 301° West 427 491 24,900 -1,694 Descending Denver Center
Wed 10:30:23 PM 39.1742 -103.4547 301° West 418 481 23,300 -1,561 Descending Denver Center
Wed 10:31:24 PM 39.2317 -103.5783 301° West 407 468 21,700 -1,463 Descending Denver Center
Wed 10:32:26 PM 39.2811 -103.6875 300° West 360 414 20,300 -1,258 Descending Denver Center
Wed 10:33:28 PM 39.3267 -103.7850 301° West 324 373 19,100 -1,065 Descending Denver Center
Wed 10:34:30 PM 39.3717 -103.8806 301° West 315 362 18,100 -1,073 Descending Denver Center
Wed 10:35:31 PM 39.3986 -104.0050 286° West 327 376 16,900 -1,366 Descending Denver Center
Wed 10:36:33 PM 39.4050 -104.1222 274° West 304 350 15,300 -1,500 Descending Denver Center
Wed 10:37:35 PM 39.4100 -104.2244 274° West 288 331 13,800 -1,366 Descending Denver Center
Wed 10:38:36 PM 39.4169 -104.3203 275° West 270 311 12,500 -1,268 Descending Denver Center
Wed 10:39:38 PM 39.4297 -104.4214 279° West 267 307 11,200 -968 Descending Denver Center
Wed 10:40:40 PM 39.4564 -104.5136 291° West 277 319 10,500 -878 Descending Denver Center
Wed 10:41:41 PM 39.5147 -104.5608 328° Northwest 259 298 9,400 -683 Descending Denver Center
Wed 10:42:43 PM 39.5853 -104.5889 343° North 250 288 9,100 -353 Descending Denver Center
Wed 10:43:57 PM 39.6508 -104.6108 346° North 244 281 8,600 -750 Descending Denver Center
Wed 10:44:59 PM 39.7275 -104.6383 345° North 220 253 7,400 -1,073 Descending Denver Center
Wed 10:46:00 PM 39.7833 -104.6425 357° North 185 213 6,400 -878 Descending Denver Center
Wed 10:47:02 PM 39.8250 -104.6417 North 155 178 5,600 -484 Descending Denver Center
Wed 10:48:04 PM 39.8539 -104.6417 360° North 130 150 5,400 -194 Descending Denver Center
Wed 10:50:00 PM 39.8500 -104.6667 North  Level FlightAware Approximate
Wed 10:57:00 PM 39.8617 -104.6732 North  Level Estimated

Login

Don't have an account? Register now (free) for customized features, flight alerts, and more!